HGSO2: HUGO

Data processed at Fri May 26 2017 23:06


All information presented herein is the property of the government of the United States of America and may be revised or deleted at any time without prior notice.
Dissemination of this information without the expressed written consent of the Public Affairs Office, Tulsa District U.S. Army Corps of Engineers is strictly prohibited.
These data are gathered electronically and, as presented, have not undergone any form of quality control. These data are not guaranteed to be valid or correct.
Go to home page.
Go to station list.
Go to home page.


Previous Day
Next Day
Current Day


    
SHEF ID:       HGLO2     Hugo Lake
STATION TYPE:  RESERVOIR
Normal Pool:  Bottom =   390.00, Top =   404.50

               PRECIP ELEVATION   STORAGE    INFLOW   RELEASE  AIR-TEMP  WIND-DIRWIND-SPEED REL-HUMID SOLAR-RAD   VOLTAGE  BAT-LOAD
                   in        ft     ac-ft       cfs       cfs         F       deg       mph         %      W/m2      volt      volt
              Ccp-Rev   Ccp-Rev   Ccp-Rev  Regi-Rev  Regi-Rev   Ccp-Rev   Ccp-Rev   Ccp-Rev   Ccp-Rev   Ccp-Rev   Ccp-Rev   Ccp-Rev
(US/Central)
05/26 00:00      0.00    405.34    154126      1821      2797     73.17    157.20      7.53     74.96      0.00     13.71     13.36
05/26 01:00      0.00    405.32    153857      1821      2796     72.63    157.20      9.56     75.94      0.00     13.71     13.36
05/26 02:00      0.00    405.32    153857      1495      2796     71.31    157.10      8.83     79.66      0.00     13.71     13.36
05/26 03:00      0.00    405.30    153588      1260      2795     69.76    158.50      9.44     83.20      0.00     13.70     13.36
05/26 04:00      0.00    405.30    153588      2144      2794     68.67    156.20      9.45     86.13      0.00     13.70     13.36
05/26 05:00      0.00    405.29    153454      2235      2793     67.46    154.30      8.41     87.96      0.00     13.70     13.36
05/26 06:00      0.00    405.30    153588      2377      2793     67.46    148.70      7.02     86.19      0.00     13.70     13.36
05/26 07:00      0.00    405.30    153588      1818      2794     68.68    149.60      7.18     83.21     10.00     13.69     13.36
05/26 08:00      0.00    405.29    153454      2351      2793     69.55    150.30      7.66     83.38     66.00     13.69     13.36
05/26 09:00      0.00    405.27    153185      1583      2792     72.41    155.30      8.14     83.81    167.00     13.69     13.36
05/26 10:00      0.00    405.28    153320      1140      2207     79.43    179.80      8.72     77.65    290.00     13.69     13.36
05/26 11:00      0.00    405.30    153588      1925      1390     83.39    197.60      9.99     71.11    543.00     13.69     12.07
05/26 12:00      0.00    405.27    153185      2203      1390     84.94    203.40     11.67     66.96    654.00     13.70     13.36
05/26 13:00      0.00    405.29    153454      1715      1390     88.12    206.80     12.04     59.15    678.00     13.70     13.36
05/26 14:00      0.00    405.29    153454      2528      1390     90.43    200.30     11.59     58.54    888.00     13.71     12.60
05/26 15:00      0.00    405.29    153454      2528      1390     88.77    188.10     12.90     61.90    505.00     13.71     13.36
05/26 16:00      0.00    405.31    153723      1715      1391     90.43    180.10     12.68     58.42    565.00     13.72     13.36
05/26 17:00      0.00    405.29    153454      2040      1391     89.65    185.80     14.65     59.09    519.00     13.72     13.36
05/26 18:00      0.00    405.30    153588      2366      1390     88.56    183.20     12.78     62.32    260.00     13.72     13.36
05/26 19:00      0.00    405.31    153723      2366      1391     86.47    171.90     10.40     67.39    120.00     13.72     13.36
05/26 20:00      0.00    405.32    153857      2854      1391     85.26    174.80      9.88     68.73     34.00     13.73     13.36
05/26 21:00      0.00    405.34    154126      3667      1392     83.84    169.30      8.53     71.97      1.00     13.72     13.36
05/26 22:00      0.00    405.35    154260      3342      1392     81.75    164.20      5.73     77.28      0.00     13.72     13.36
05/26 23:00      ----      ----      ----      ----      ----      ----      ----      ----      ----      ----      ----      ----